Time;durP1;ratioP1;P1;durP2;ratioP2;P2;SDS_P1;SDS_P2;PMS_P1;PMS_P2;Temp;Humidity;BMP_temperature;BMP_pressure;BME280_temperature;BME280_humidity;BME280_pressure;Samples;Min_cycle;Max_cycle;Signal;HPM_P1;HPM_P2
2023/11/05 00:00:06;;;;;;;10.30;4.70;;;;;;;15.80;100.00;99670.01;109705;1251;62432;-76
2023/11/05 00:02:38;;;;;;;10.60;5.40;;;;;;;15.78;100.00;99647.91;109666;1251;71415;-76
2023/11/05 00:05:06;;;;;;;12.20;5.70;;;;;;;15.77;100.00;99641.06;109648;1251;60440;-76
2023/11/05 00:07:34;;;;;;;11.20;5.40;;;;;;;15.73;100.00;99622.30;109672;1251;60491;-76
2023/11/05 00:10:04;;;;;;;8.90;5.20;;;;;;;15.71;100.00;99617.10;109663;1251;72557;-77
2023/11/05 00:12:32;;;;;;;6.60;5.20;;;;;;;15.68;100.00;99613.67;109652;1251;63903;-75
2023/11/05 00:14:59;;;;;;;8.00;5.10;;;;;;;15.65;100.00;99606.70;109632;1251;71354;-76
2023/11/05 00:17:27;;;;;;;11.00;5.70;;;;;;;15.63;100.00;99603.44;109622;1254;60388;-77
2023/11/05 00:19:54;;;;;;;8.10;5.00;;;;;;;15.60;100.00;99593.15;109660;1251;60313;-75
2023/11/05 00:22:22;;;;;;;11.10;6.60;;;;;;;15.57;100.00;99562.40;109658;1251;73857;-74
2023/11/05 00:24:49;;;;;;;9.50;5.50;;;;;;;15.55;100.00;99531.20;109661;1251;63544;-73
2023/11/05 00:27:16;;;;;;;7.20;4.60;;;;;;;15.55;100.00;99525.63;109577;1251;71415;-73
2023/11/05 00:29:44;;;;;;;8.90;5.70;;;;;;;15.56;100.00;99525.00;109638;1254;60704;-75
2023/11/05 00:32:11;;;;;;;10.70;6.40;;;;;;;15.58;100.00;99548.04;109694;1251;60478;-74
2023/11/05 00:34:39;;;;;;;9.80;6.60;;;;;;;15.59;100.00;99550.73;109657;1250;73979;-76
2023/11/05 00:37:06;;;;;;;10.00;6.90;;;;;;;15.60;100.00;99551.76;109669;1251;63428;-76
2023/11/05 00:39:34;;;;;;;10.40;5.90;;;;;;;15.60;100.00;99559.52;109626;1251;73290;-75
2023/11/05 00:42:01;;;;;;;8.30;5.80;;;;;;;15.60;100.00;99552.62;109652;1251;59921;-75
2023/11/05 00:44:29;;;;;;;9.40;5.70;;;;;;;15.60;100.00;99545.02;109642;1251;60013;-76
2023/11/05 00:46:56;;;;;;;12.00;7.10;;;;;;;15.59;100.00;99553.40;109643;1251;73832;-76
2023/11/05 00:49:24;;;;;;;11.10;6.00;;;;;;;15.59;100.00;99552.88;109640;1251;63730;-76
2023/11/05 00:51:51;;;;;;;10.00;6.40;;;;;;;15.59;100.00;99556.38;109629;1251;70839;-76
2023/11/05 00:54:19;;;;;;;11.30;6.20;;;;;;;15.59;100.00;99565.76;109610;1251;60790;-76
2023/11/05 00:56:46;;;;;;;11.20;5.70;;;;;;;15.59;100.00;99556.05;109668;1251;60216;-75
2023/11/05 00:59:14;;;;;;;12.70;6.20;;;;;;;15.59;100.00;99559.42;109639;1250;73767;-76
2023/11/05 01:01:41;;;;;;;7.90;5.90;;;;;;;15.59;100.00;99559.72;109677;1251;63506;-76
2023/11/05 01:04:09;;;;;;;15.20;6.80;;;;;;;15.59;100.00;99559.44;109612;1251;72418;-77
2023/11/05 01:06:37;;;;;;;12.50;6.50;;;;;;;15.58;100.00;99552.42;109608;1251;60970;-75
2023/11/05 01:09:05;;;;;;;12.70;6.80;;;;;;;15.57;100.00;99546.35;109614;1253;60021;-76
2023/11/05 01:11:33;;;;;;;11.40;6.60;;;;;;;15.57;100.00;99543.21;109661;1251;74019;-76
2023/11/05 01:14:01;;;;;;;10.90;6.70;;;;;;;15.57;100.00;99545.98;109729;1251;63846;-76
2023/11/05 01:16:28;;;;;;;11.20;5.80;;;;;;;15.57;100.00;99548.30;109654;1251;71475;-76
2023/11/05 01:18:56;;;;;;;9.70;5.90;;;;;;;15.56;100.00;99552.95;109647;1251;60876;-76
2023/11/05 01:21:24;;;;;;;11.30;6.20;;;;;;;15.57;100.00;99553.29;109644;1251;58823;-75
2023/11/05 01:23:52;;;;;;;11.30;5.70;;;;;;;15.57;100.00;99555.70;109626;1251;72627;-77
2023/11/05 01:26:19;;;;;;;8.80;6.20;;;;;;;15.57;100.00;99545.35;109711;1251;63635;-75
2023/11/05 01:28:47;;;;;;;7.60;6.60;;;;;;;15.56;100.00;99546.97;109640;1251;72768;-77
2023/11/05 01:31:15;;;;;;;13.00;7.10;;;;;;;15.57;100.00;99547.45;109630;1254;61623;-76
2023/11/05 01:33:43;;;;;;;11.90;6.40;;;;;;;15.58;100.00;99547.37;109709;1251;59066;-76
2023/11/05 01:36:11;;;;;;;12.10;6.50;;;;;;;15.58;100.00;99550.13;109694;1251;72534;-74
2023/11/05 01:38:39;;;;;;;11.70;6.80;;;;;;;15.59;100.00;99549.14;109726;1250;63629;-75
2023/11/05 01:41:07;;;;;;;14.00;6.50;;;;;;;15.61;100.00;99548.13;109686;1251;74767;-75
2023/11/05 01:43:34;;;;;;;17.50;7.10;;;;;;;15.61;100.00;99544.08;109638;1251;61684;-75
2023/11/05 01:46:02;;;;;;;13.70;6.40;;;;;;;15.61;100.00;99534.86;109702;1254;59963;-75
2023/11/05 01:48:30;;;;;;;11.70;6.40;;;;;;;15.62;100.00;99535.65;109653;1251;74068;-75
2023/11/05 01:52:27;;;;;;;12.60;7.30;;;;;;;15.64;100.00;99514.46;102475;1290;617195;-77
2023/11/05 01:54:55;;;;;;;14.80;9.30;;;;;;;15.62;100.00;99515.41;105124;1269;61245;-74
2023/11/05 01:57:23;;;;;;;13.40;7.70;;;;;;;15.62;100.00;99514.21;105528;1257;60189;-75
2023/11/05 01:59:49;;;;;;;16.30;8.40;;;;;;;15.60;100.00;99506.96;105484;1257;70728;-80
2023/11/05 02:02:16;;;;;;;12.20;7.20;;;;;;;15.59;100.00;99505.86;105488;1257;63847;-77
2023/11/05 02:04:43;;;;;;;11.60;6.90;;;;;;;15.56;100.00;99495.89;105341;1254;191728;-76
2023/11/05 02:07:11;;;;;;;15.80;7.10;;;;;;;15.54;100.00;99489.05;105842;1255;59512;-76
2023/11/05 02:09:38;;;;;;;12.60;6.50;;;;;;;15.52;100.00;99492.79;105812;1253;59320;-75
2023/11/05 02:12:06;;;;;;;12.70;6.30;;;;;;;15.51;100.00;99491.33;105728;1253;72294;-76
2023/11/05 02:14:33;;;;;;;10.60;6.70;;;;;;;15.50;100.00;99489.64;105715;1257;63898;-76
2023/11/05 02:17:00;;;;;;;12.40;6.60;;;;;;;15.49;100.00;99495.56;105681;1257;71523;-74
2023/11/05 02:19:27;;;;;;;13.40;6.00;;;;;;;15.48;100.00;99493.27;105835;1254;61348;-74
2023/11/05 02:22:03;;;;;;;13.60;5.90;;;;;;;15.49;100.00;99506.63;105677;1259;60087;-77
2023/11/05 02:24:31;;;;;;;9.30;6.00;;;;;;;15.50;100.00;99507.63;105650;1254;71693;-76
2023/11/05 02:26:58;;;;;;;12.10;6.10;;;;;;;15.50;100.00;99500.51;105803;1257;63667;-79
2023/11/05 02:29:25;;;;;;;10.00;5.90;;;;;;;15.51;100.00;99492.13;105885;1253;71300;-76
2023/11/05 02:31:53;;;;;;;9.30;6.10;;;;;;;15.52;100.00;99492.58;105771;1253;60595;-79
2023/11/05 02:34:20;;;;;;;7.80;5.30;;;;;;;15.52;100.00;99482.71;105647;1253;60153;-75
2023/11/05 02:36:47;;;;;;;11.50;5.40;;;;;;;15.53;100.00;99485.44;105778;1253;72647;-79
2023/11/05 02:39:14;;;;;;;9.40;5.10;;;;;;;15.53;100.00;99479.48;105820;1257;63696;-76
2023/11/05 02:41:42;;;;;;;9.70;5.80;;;;;;;15.53;100.00;99488.41;105760;1254;72710;-79
2023/11/05 02:44:09;;;;;;;11.20;5.90;;;;;;;15.54;100.00;99486.77;105797;1256;61804;-74
2023/11/05 02:46:36;;;;;;;10.30;6.20;;;;;;;15.54;100.00;99486.34;105825;1253;60287;-77
2023/11/05 02:49:03;;;;;;;12.50;6.10;;;;;;;15.54;100.00;99486.55;105749;1258;71230;-76
2023/11/05 02:51:29;;;;;;;10.40;5.50;;;;;;;15.54;100.00;99483.93;105853;1252;62656;-77
2023/11/05 02:53:56;;;;;;;8.80;5.20;;;;;;;15.53;100.00;99477.30;105906;1256;72460;-77
2023/11/05 02:56:23;;;;;;;9.10;5.70;;;;;;;15.52;100.00;99477.10;105725;1257;61943;-74
2023/11/05 02:58:50;;;;;;;13.30;6.00;;;;;;;15.50;100.00;99488.91;106039;1251;60299;-75
2023/11/05 03:01:24;;;;;;;15.20;6.40;;;;;;;15.49;100.00;99497.42;105972;1251;72865;-75
2023/11/05 03:03:51;;;;;;;9.30;5.60;;;;;;;15.50;100.00;99499.14;105919;1251;62463;-75
2023/11/05 03:06:18;;;;;;;9.60;5.40;;;;;;;15.51;100.00;99497.46;105921;1253;72643;-79
2023/11/05 03:08:44;;;;;;;10.30;5.70;;;;;;;15.51;100.00;99493.56;105930;1251;60972;-77
2023/11/05 03:11:11;;;;;;;16.50;5.50;;;;;;;15.51;100.00;99492.52;106065;1253;60311;-77
2023/11/05 03:13:42;;;;;;;13.00;6.60;;;;;;;15.50;100.00;99491.72;105890;1251;72992;-76
2023/11/05 03:16:11;;;;;;;8.40;4.80;;;;;;;15.49;100.00;99499.08;105882;1256;62628;-74
2023/11/05 03:18:42;;;;;;;11.20;6.20;;;;;;;15.47;100.00;99499.98;106091;1253;72435;-71
2023/11/05 03:21:13;;;;;;;8.20;5.40;;;;;;;15.46;100.00;99500.27;106032;1253;60552;-75
2023/11/05 03:23:41;;;;;;;12.80;5.20;;;;;;;15.44;100.00;99503.08;106031;1251;60127;-76
2023/11/05 03:26:10;;;;;;;10.30;5.30;;;;;;;15.42;100.00;99506.27;105944;1254;72119;-78
2023/11/05 03:28:37;;;;;;;9.20;5.80;;;;;;;15.40;100.00;99499.80;105978;1253;65455;-75
2023/11/05 03:31:04;;;;;;;11.20;6.20;;;;;;;15.38;100.00;99505.23;105997;1253;72637;-75
2023/11/05 03:33:31;;;;;;;11.20;5.40;;;;;;;15.37;100.00;99504.34;105962;1256;61925;-77
2023/11/05 03:35:58;;;;;;;10.40;5.90;;;;;;;15.34;100.00;99504.22;106000;1252;60267;-76
2023/11/05 03:38:25;;;;;;;11.70;5.90;;;;;;;15.32;100.00;99503.54;105987;1251;71558;-76
2023/11/05 03:40:52;;;;;;;15.40;6.40;;;;;;;15.30;100.00;99502.16;106125;1253;63991;-77
2023/11/05 03:43:20;;;;;;;11.80;6.60;;;;;;;15.28;100.00;99509.38;106054;1251;72807;-79
2023/11/05 03:45:47;;;;;;;10.60;5.40;;;;;;;15.27;100.00;99511.05;105984;1253;62004;-77
2023/11/05 03:48:14;;;;;;;13.70;5.80;;;;;;;15.26;100.00;99515.39;105951;1252;60375;-76
2023/11/05 03:50:41;;;;;;;10.50;5.40;;;;;;;15.25;100.00;99521.64;106054;1251;72745;-77
2023/11/05 03:53:08;;;;;;;11.00;6.00;;;;;;;15.24;100.00;99515.80;105998;1251;63817;-76
2023/11/05 03:55:35;;;;;;;9.90;5.90;;;;;;;15.22;100.00;99517.59;105915;1250;71161;-77
2023/11/05 03:58:03;;;;;;;10.10;5.50;;;;;;;15.19;100.00;99514.10;106036;1253;60410;-75
2023/11/05 04:00:30;;;;;;;9.70;6.00;;;;;;;15.18;100.00;99510.55;105977;1250;60157;-76
2023/11/05 04:02:57;;;;;;;11.00;6.20;;;;;;;15.17;100.00;99513.81;105996;1251;70443;-77
2023/11/05 04:05:24;;;;;;;16.10;6.20;;;;;;;15.15;100.00;99531.42;105883;1250;62630;-77
2023/11/05 04:07:52;;;;;;;10.30;5.70;;;;;;;15.12;100.00;99536.73;106007;1251;72443;-80
2023/11/05 04:10:19;;;;;;;11.80;6.40;;;;;;;15.11;100.00;99535.70;105982;1251;60580;-79
2023/11/05 04:12:46;;;;;;;10.60;6.40;;;;;;;15.08;100.00;99546.98;106000;1256;59768;-78
2023/11/05 04:15:12;;;;;;;13.10;6.40;;;;;;;15.08;100.00;99545.87;106032;1250;71535;-77
2023/11/05 04:17:40;;;;;;;13.50;7.10;;;;;;;15.06;100.00;99531.95;105913;1253;63749;-78
2023/11/05 04:20:06;;;;;;;13.60;6.60;;;;;;;15.04;100.00;99540.57;105959;1253;72566;-78
2023/11/05 04:22:34;;;;;;;11.80;5.80;;;;;;;15.02;100.00;99539.89;106103;1253;61028;-73
2023/11/05 04:25:01;;;;;;;13.90;6.40;;;;;;;15.00;100.00;99539.17;105916;1250;60196;-77
2023/11/05 04:27:28;;;;;;;13.10;6.00;;;;;;;14.99;100.00;99541.83;105966;1251;72973;-77
2023/11/05 04:29:55;;;;;;;9.90;5.60;;;;;;;14.97;100.00;99545.16;106041;1253;62361;-78
2023/11/05 04:32:23;;;;;;;13.60;6.80;;;;;;;14.94;100.00;99560.52;105939;1251;71034;-79
2023/11/05 04:34:50;;;;;;;11.90;6.50;;;;;;;14.92;100.00;99558.12;105960;1250;60641;-78
2023/11/05 04:37:18;;;;;;;11.20;6.10;;;;;;;14.90;100.00;99570.93;106009;1251;59494;-78
2023/11/05 04:39:44;;;;;;;17.70;8.30;;;;;;;14.89;100.00;99576.81;106031;1254;73108;-77
2023/11/05 04:42:12;;;;;;;14.60;7.20;;;;;;;14.89;100.00;99569.33;106086;1250;62344;-78
2023/11/05 04:44:39;;;;;;;12.00;7.20;;;;;;;14.89;100.00;99561.73;105985;1253;72333;-77
2023/11/05 04:47:06;;;;;;;16.60;8.00;;;;;;;14.89;100.00;99549.92;106010;1251;60423;-77
2023/11/05 04:49:33;;;;;;;20.40;10.60;;;;;;;14.90;100.00;99555.42;105951;1254;59682;-74
2023/11/05 04:52:00;;;;;;;20.20;7.80;;;;;;;14.92;100.00;99578.31;105991;1253;73297;-78
2023/11/05 04:54:27;;;;;;;14.50;8.20;;;;;;;14.95;100.00;99570.89;106036;1253;63889;-79
2023/11/05 04:56:54;;;;;;;22.10;9.40;;;;;;;14.96;100.00;99558.02;106035;1251;73899;-76
2023/11/05 04:59:21;;;;;;;14.20;7.90;;;;;;;14.98;100.00;99549.61;105876;1253;61647;-77
2023/11/05 05:01:48;;;;;;;14.80;8.00;;;;;;;15.00;100.00;99566.65;105771;1251;60706;-77
2023/11/05 05:04:15;;;;;;;17.30;8.80;;;;;;;15.02;100.00;99599.42;105953;1253;72989;-76
2023/11/05 05:06:42;;;;;;;20.80;7.80;;;;;;;15.03;100.00;99595.91;105957;1251;63640;-78
2023/11/05 05:09:10;;;;;;;15.40;7.60;;;;;;;15.05;100.00;99550.19;106036;1253;72549;-75
2023/11/05 05:11:37;;;;;;;15.70;9.40;;;;;;;15.05;100.00;99506.72;105989;1253;62049;-77
2023/11/05 05:14:04;;;;;;;20.10;7.70;;;;;;;15.05;100.00;99516.54;105966;1251;60176;-76
2023/11/05 05:16:31;;;;;;;15.80;7.70;;;;;;;15.05;100.00;99543.43;106034;1251;71597;-78
2023/11/05 05:18:58;;;;;;;15.30;7.20;;;;;;;15.07;100.00;99560.52;105955;1249;61456;-75
2023/11/05 05:21:24;;;;;;;17.90;7.00;;;;;;;15.09;100.00;99565.42;105994;1253;71070;-76
2023/11/05 05:23:51;;;;;;;10.50;7.30;;;;;;;15.13;100.00;99571.77;105995;1257;62008;-75
2023/11/05 05:26:18;;;;;;;13.70;7.40;;;;;;;15.16;100.00;99568.13;105999;1254;59544;-78
2023/11/05 05:28:49;;;;;;;12.90;7.50;;;;;;;15.18;100.00;99575.72;106048;1253;71718;-76
2023/11/05 05:31:17;;;;;;;15.00;7.70;;;;;;;15.20;100.00;99575.67;106043;1253;62804;-77
2023/11/05 05:33:44;;;;;;;23.70;9.80;;;;;;;15.22;100.00;99578.86;105996;1252;70098;-78
2023/11/05 05:36:12;;;;;;;17.50;7.80;;;;;;;15.23;100.00;99577.46;105930;1253;62088;-76
2023/11/05 05:38:39;;;;;;;16.40;8.10;;;;;;;15.24;100.00;99582.66;105990;1254;60098;-76
2023/11/05 05:41:07;;;;;;;18.40;8.50;;;;;;;15.26;100.00;99583.77;105984;1253;74168;-76
2023/11/05 05:43:36;;;;;;;20.80;7.90;;;;;;;15.28;100.00;99590.06;106029;1253;63775;-75
2023/11/05 05:46:03;;;;;;;14.50;7.70;;;;;;;15.29;100.00;99595.23;106095;1251;72882;-78
2023/11/05 05:48:30;;;;;;;15.00;6.80;;;;;;;15.31;100.00;99604.20;105906;1255;62152;-77
2023/11/05 05:50:57;;;;;;;14.60;7.70;;;;;;;15.33;100.00;99588.83;105991;1251;60496;-79
2023/11/05 05:53:23;;;;;;;20.60;7.30;;;;;;;15.38;100.00;99600.77;105990;1251;71603;-75
2023/11/05 05:55:50;;;;;;;13.10;6.30;;;;;;;15.41;100.00;99604.95;105951;1253;63908;-78
2023/11/05 05:58:21;;;;;;;13.20;6.00;;;;;;;15.48;100.00;99606.05;105916;1251;71250;-76
2023/11/05 06:00:48;;;;;;;14.90;6.20;;;;;;;15.62;100.00;99596.14;105985;1253;61767;-77
2023/11/05 06:03:15;;;;;;;16.10;6.20;;;;;;;15.74;100.00;99591.60;105968;1251;60514;-78
2023/11/05 06:05:43;;;;;;;16.00;5.50;;;;;;;15.83;100.00;99600.25;105876;1253;73828;-77
2023/11/05 06:08:10;;;;;;;12.20;6.20;;;;;;;15.88;100.00;99602.17;105919;1253;62948;-76
2023/11/05 06:10:39;;;;;;;13.70;5.70;;;;;;;15.94;100.00;99587.89;105867;1251;72551;-77
2023/11/05 06:13:07;;;;;;;11.90;5.90;;;;;;;16.00;100.00;99589.02;105932;1253;62049;-79
2023/11/05 06:15:34;;;;;;;11.90;4.90;;;;;;;16.08;100.00;99586.51;106095;1250;60460;-78
2023/11/05 06:18:01;;;;;;;7.90;4.20;;;;;;;16.16;100.00;99596.43;106008;1253;73963;-76
2023/11/05 06:20:28;;;;;;;10.50;4.60;;;;;;;16.22;100.00;99596.21;105974;1255;63885;-75
2023/11/05 06:22:58;;;;;;;14.40;6.10;;;;;;;16.28;100.00;99591.59;106029;1251;73718;-76
2023/11/05 06:25:25;;;;;;;13.20;6.10;;;;;;;16.33;100.00;99587.98;105950;1251;60469;-77
2023/11/05 06:27:53;;;;;;;11.60;4.80;;;;;;;16.38;100.00;99578.67;105909;1251;60434;-78
2023/11/05 06:30:21;;;;;;;15.40;4.80;;;;;;;16.42;100.00;99586.66;106018;1251;73936;-79
2023/11/05 06:32:48;;;;;;;13.40;5.60;;;;;;;16.43;100.00;99586.70;105985;1253;63538;-79
2023/11/05 06:35:15;;;;;;;9.90;4.90;;;;;;;16.43;100.00;99584.55;105924;1253;71111;-79
2023/11/05 06:37:42;;;;;;;8.60;3.70;;;;;;;16.43;100.00;99587.77;106004;1252;61880;-79
2023/11/05 06:40:10;;;;;;;12.80;4.80;;;;;;;16.41;100.00;99596.22;106091;1251;61726;-79
2023/11/05 06:42:39;;;;;;;10.10;4.30;;;;;;;16.39;100.00;99615.69;105978;1250;73662;-79
2023/11/05 06:45:07;;;;;;;11.10;4.40;;;;;;;16.36;100.00;99594.59;106020;1254;63855;-78
2023/11/05 06:47:34;;;;;;;14.70;5.70;;;;;;;16.34;100.00;99568.13;106082;1251;73860;-79
2023/11/05 06:50:04;;;;;;;16.70;4.50;;;;;;;16.33;100.00;99583.92;105938;1253;60453;-79
2023/11/05 06:52:31;;;;;;;12.70;4.40;;;;;;;16.32;100.00;99583.70;106020;1251;60543;-78
2023/11/05 06:54:58;;;;;;;15.20;4.00;;;;;;;16.30;100.00;99587.98;105869;1253;73597;-75
2023/11/05 06:57:24;;;;;;;15.50;4.00;;;;;;;16.28;100.00;99597.18;106061;1253;63812;-76
2023/11/05 06:59:52;;;;;;;10.40;4.00;;;;;;;16.27;100.00;99591.64;106120;1253;71149;-78
2023/11/05 07:02:19;;;;;;;13.10;3.80;;;;;;;16.28;100.00;99587.16;107163;1249;60622;-76
2023/11/05 07:04:46;;;;;;;10.00;3.80;;;;;;;16.30;100.00;99585.13;106435;1252;60430;-75
2023/11/05 07:07:13;;;;;;;17.30;4.90;;;;;;;16.33;100.00;99585.38;106305;1253;73902;-77
2023/11/05 07:09:40;;;;;;;11.10;3.80;;;;;;;16.35;100.00;99590.85;105974;1253;63953;-75
2023/11/05 07:12:11;;;;;;;11.50;4.40;;;;;;;16.33;100.00;99597.88;105886;1252;71530;-80
2023/11/05 07:14:40;;;;;;;12.50;4.70;;;;;;;16.30;100.00;99618.30;105926;1257;60654;-79
2023/11/05 07:17:07;;;;;;;12.70;4.50;;;;;;;16.27;100.00;99643.02;106121;1251;60977;-76
2023/11/05 07:19:34;;;;;;;8.00;3.60;;;;;;;16.23;100.00;99646.74;105994;1253;73807;-80
2023/11/05 07:22:01;;;;;;;12.60;4.60;;;;;;;16.20;100.00;99633.43;105983;1251;62323;-78
2023/11/05 07:24:28;;;;;;;9.30;4.70;;;;;;;16.19;100.00;99619.94;105977;1251;72659;-80
2023/11/05 07:26:55;;;;;;;12.60;3.90;;;;;;;16.15;100.00;99610.27;105988;1251;60836;-77
2023/11/05 07:29:22;;;;;;;7.70;3.30;;;;;;;16.11;100.00;99596.02;106067;1253;60546;-77
2023/11/05 07:31:48;;;;;;;18.10;4.70;;;;;;;16.06;100.00;99587.00;105932;1251;72320;-77
2023/11/05 07:34:15;;;;;;;7.60;3.90;;;;;;;16.02;100.00;99584.77;105959;1251;62654;-78
2023/11/05 07:36:42;;;;;;;8.10;3.00;;;;;;;15.99;100.00;99584.59;105873;1251;70797;-81
2023/11/05 07:39:09;;;;;;;16.30;4.20;;;;;;;15.96;100.00;99586.64;105908;1253;61945;-80
2023/11/05 07:41:37;;;;;;;8.00;2.70;;;;;;;15.93;100.00;99576.08;106097;1253;60378;-78
2023/11/05 07:44:05;;;;;;;13.50;3.60;;;;;;;15.93;100.00;99562.75;106001;1251;73900;-79
2023/11/05 07:46:33;;;;;;;13.40;4.00;;;;;;;15.94;100.00;99559.95;106088;1253;63300;-80
2023/11/05 07:49:00;;;;;;;13.60;3.60;;;;;;;15.98;100.00;99564.78;106052;1251;71297;-77
2023/11/05 07:51:30;;;;;;;9.40;4.10;;;;;;;16.00;100.00;99568.77;105963;1251;61749;-77
2023/11/05 07:53:59;;;;;;;15.40;4.30;;;;;;;16.04;100.00;99566.55;105911;1251;60546;-76
2023/11/05 07:56:28;;;;;;;14.60;4.90;;;;;;;16.10;100.00;99570.75;106051;1251;73783;-79
2023/11/05 07:58:57;;;;;;;11.30;3.40;;;;;;;16.13;100.00;99570.95;106008;1253;64076;-75
2023/11/05 08:01:24;;;;;;;11.70;2.70;;;;;;;16.14;100.00;99569.27;106024;1253;71043;-79
2023/11/05 08:03:51;;;;;;;13.60;3.70;;;;;;;16.15;100.00;99558.66;105941;1253;61835;-80
2023/11/05 08:06:22;;;;;;;9.20;3.20;;;;;;;16.14;100.00;99544.80;105932;1253;60511;-79
2023/11/05 08:08:49;;;;;;;10.00;2.60;;;;;;;16.13;100.00;99535.58;105956;1251;72679;-78
2023/11/05 08:11:16;;;;;;;12.20;2.80;;;;;;;16.11;100.00;99515.42;105976;1250;61862;-78
2023/11/05 08:13:43;;;;;;;9.70;3.00;;;;;;;16.11;100.00;99515.88;106053;1254;73128;-77
2023/11/05 08:16:10;;;;;;;11.60;2.90;;;;;;;16.09;100.00;99510.58;106045;1253;61711;-80
2023/11/05 08:18:38;;;;;;;12.40;3.00;;;;;;;16.07;100.00;99503.52;105989;1251;60603;-78
2023/11/05 08:21:08;;;;;;;11.50;3.50;;;;;;;16.06;100.00;99507.36;106001;1251;73794;-79
2023/11/05 08:23:36;;;;;;;7.20;2.50;;;;;;;16.05;100.00;99529.52;106039;1254;62751;-77
2023/11/05 08:26:03;;;;;;;10.10;3.10;;;;;;;16.04;100.00;99544.23;106019;1253;72617;-79
2023/11/05 08:28:31;;;;;;;6.50;2.20;;;;;;;16.05;100.00;99557.02;106012;1251;62419;-78
2023/11/05 08:30:58;;;;;;;8.30;2.60;;;;;;;16.04;100.00;99562.35;106077;1251;60451;-77
2023/11/05 08:33:25;;;;;;;9.20;3.70;;;;;;;16.04;100.00;99555.88;106006;1254;73737;-80
2023/11/05 08:35:54;;;;;;;7.40;2.20;;;;;;;16.03;100.00;99564.73;105968;1251;62376;-80
2023/11/05 08:38:21;;;;;;;8.40;2.30;;;;;;;16.02;100.00;99560.95;105906;1251;70290;-78
2023/11/05 08:40:49;;;;;;;8.50;3.40;;;;;;;16.01;100.00;99554.58;105884;1253;60488;-77
2023/11/05 08:43:16;;;;;;;6.10;2.20;;;;;;;16.01;100.00;99544.70;106006;1251;60514;-76
2023/11/05 08:45:43;;;;;;;9.50;2.30;;;;;;;16.01;100.00;99542.95;105924;1252;73896;-79
2023/11/05 08:48:17;;;;;;;8.40;2.60;;;;;;;16.01;100.00;99538.16;105893;1253;62558;-79
2023/11/05 08:50:45;;;;;;;10.20;1.90;;;;;;;16.02;100.00;99543.16;105864;1253;72589;-76
2023/11/05 08:53:12;;;;;;;8.80;1.80;;;;;;;16.04;100.00;99543.98;105913;1251;60855;-77
2023/11/05 08:55:39;;;;;;;10.70;1.90;;;;;;;16.07;100.00;99546.39;105971;1251;60434;-77
2023/11/05 08:58:07;;;;;;;11.20;2.60;;;;;;;16.10;100.00;99542.86;105929;1252;73714;-77
2023/11/05 09:00:34;;;;;;;6.60;1.60;;;;;;;16.13;100.00;99539.41;105949;1254;64057;-76
2023/11/05 09:03:04;;;;;;;11.90;2.30;;;;;;;16.17;100.00;99544.45;105936;1251;72695;-77
2023/11/05 09:05:32;;;;;;;4.40;1.50;;;;;;;16.21;100.00;99548.31;106007;1251;60539;-76
2023/11/05 09:07:59;;;;;;;6.80;2.30;;;;;;;16.23;100.00;99552.14;105955;1250;60450;-74
2023/11/05 09:10:26;;;;;;;6.80;2.20;;;;;;;16.25;100.00;99553.18;105938;1251;73997;-77
2023/11/05 09:12:53;;;;;;;6.50;2.20;;;;;;;16.27;100.00;99544.36;105908;1253;62841;-77
2023/11/05 09:15:22;;;;;;;6.60;2.10;;;;;;;16.30;100.00;99545.81;106022;1253;72711;-79
2023/11/05 09:17:49;;;;;;;7.40;1.70;;;;;;;16.37;100.00;99547.73;106000;1252;60752;-76
2023/11/05 09:20:16;;;;;;;8.90;1.90;;;;;;;16.47;100.00;99540.75;105940;1253;60568;-76
2023/11/05 09:22:43;;;;;;;8.10;1.50;;;;;;;16.67;100.00;99538.48;105966;1254;75006;-77
2023/11/05 09:25:12;;;;;;;6.50;1.70;;;;;;;16.90;100.00;99536.58;106042;1253;65067;-76
2023/11/05 09:27:39;;;;;;;6.60;1.70;;;;;;;17.13;100.00;99537.55;105985;1251;74735;-78
2023/11/05 09:30:14;;;;;;;8.60;1.90;;;;;;;17.47;100.00;99535.88;105954;1253;62163;-76
2023/11/05 09:32:42;;;;;;;10.40;1.80;;;;;;;17.93;100.00;99536.56;106103;1251;60539;-78
2023/11/05 09:35:12;;;;;;;6.30;1.30;;;;;;;18.39;100.00;99536.58;106036;1251;72357;-77
2023/11/05 09:37:42;;;;;;;6.00;1.40;;;;;;;18.83;100.00;99532.98;106071;1253;62419;-76
2023/11/05 09:40:14;;;;;;;5.20;1.50;;;;;;;19.05;100.00;99536.36;106057;1253;73754;-77
2023/11/05 09:43:05;;;;;;;5.10;1.70;;;;;;;19.15;100.00;99542.78;105976;1251;60695;-77
2023/11/05 09:45:33;;;;;;;8.10;2.10;;;;;;;19.12;100.00;99540.70;106028;1253;60424;-80
2023/11/05 09:48:05;;;;;;;4.90;1.70;;;;;;;18.96;100.00;99544.23;105986;1254;73757;-77
2023/11/05 09:50:37;;;;;;;7.30;2.40;;;;;;;18.77;100.00;99535.13;105946;1253;63851;-77
2023/11/05 09:53:10;;;;;;;4.90;1.70;;;;;;;18.61;100.00;99531.48;105972;1251;71472;-75
2023/11/05 09:55:39;;;;;;;6.80;2.00;;;;;;;18.57;100.00;99521.57;105893;1257;61614;-76
2023/11/05 09:58:08;;;;;;;8.20;2.00;;;;;;;18.74;100.00;99522.38;105854;1252;60443;-77
2023/11/05 10:00:36;;;;;;;4.20;1.50;;;;;;;18.98;100.00;99517.13;106050;1253;73827;-78
2023/11/05 10:03:07;;;;;;;4.40;1.50;;;;;;;19.19;100.00;99517.14;105934;1253;62520;-77
2023/11/05 10:05:44;;;;;;;13.20;2.20;;;;;;;19.39;100.00;99515.09;105969;1254;72720;-76
2023/11/05 10:08:12;;;;;;;6.90;2.20;;;;;;;19.45;100.00;99519.27;105991;1251;63036;-78
2023/11/05 10:10:42;;;;;;;4.40;1.60;;;;;;;19.37;100.00;99515.98;105992;1254;60428;-78
2023/11/05 10:13:12;;;;;;;7.10;1.50;;;;;;;19.23;100.00;99513.70;105992;1256;75426;-79
2023/11/05 10:15:42;;;;;;;5.60;2.70;;;;;;;19.11;100.00;99511.91;106011;1253;64058;-78
2023/11/05 10:18:17;;;;;;;9.00;2.30;;;;;;;19.01;100.00;99508.05;105991;1254;75291;-77
2023/11/05 10:20:49;;;;;;;10.30;2.50;;;;;;;18.95;100.00;99506.41;106025;1253;61845;-75
2023/11/05 10:23:16;;;;;;;6.70;2.40;;;;;;;18.89;100.00;99506.65;106044;1253;62478;-74
2023/11/05 10:25:47;;;;;;;7.00;1.90;;;;;;;18.79;100.00;99504.98;106005;1250;73183;-77
2023/11/05 10:28:14;;;;;;;6.70;1.30;;;;;;;18.71;100.00;99502.87;105982;1254;64747;-75
2023/11/05 10:30:49;;;;;;;5.10;1.30;;;;;;;18.66;100.00;99500.30;105908;1254;72880;-80
2023/11/05 10:33:16;;;;;;;4.80;1.50;;;;;;;18.62;100.00;99505.95;105858;1251;62352;-76
2023/11/05 10:35:44;;;;;;;6.60;1.30;;;;;;;18.62;100.00;99511.29;106012;1250;60543;-75
2023/11/05 10:38:18;;;;;;;7.60;2.20;;;;;;;18.59;100.00;99512.77;105995;1251;72410;-79
2023/11/05 10:40:47;;;;;;;7.20;2.60;;;;;;;18.53;100.00;99518.40;105958;1254;63257;-77
2023/11/05 10:43:15;;;;;;;8.00;2.00;;;;;;;18.48;100.00;99520.21;105969;1253;72515;-75
2023/11/05 10:45:42;;;;;;;6.40;1.20;;;;;;;18.42;100.00;99513.02;106043;1251;61971;-74
2023/11/05 10:48:09;;;;;;;4.80;1.50;;;;;;;18.31;100.00;99522.77;105984;1251;60476;-75
2023/11/05 10:50:38;;;;;;;6.90;1.60;;;;;;;18.16;100.00;99523.34;106017;1254;73954;-75
2023/11/05 10:53:06;;;;;;;6.40;2.10;;;;;;;18.02;100.00;99523.30;106405;1250;63717;-76
2023/11/05 10:55:35;;;;;;;7.30;1.90;;;;;;;17.92;100.00;99522.95;106540;1253;72455;-76
2023/11/05 10:58:03;;;;;;;5.70;1.70;;;;;;;17.85;100.00;99521.77;106318;1254;61650;-77
2023/11/05 11:01:04;;;;;;;;;;;;;;;17.85;100.00;99520.16;106041;1253;60386;-77
2023/11/05 11:03:31;;;;;;;3.70;1.80;;;;;;;17.87;100.00;99519.61;106099;1263;73866;-78
2023/11/05 11:05:59;;;;;;;4.90;1.80;;;;;;;17.86;100.00;99517.95;106484;1251;63746;-77
2023/11/05 11:08:28;;;;;;;4.70;1.70;;;;;;;17.82;100.00;99521.33;106385;1257;71594;-77
2023/11/05 11:11:06;;;;;;;6.20;1.90;;;;;;;17.78;100.00;99525.84;106065;1254;62152;-77
2023/11/05 11:13:34;;;;;;;3.20;2.20;;;;;;;17.69;100.00;99530.21;106122;1251;60411;-78
2023/11/05 11:16:03;;;;;;;4.20;1.50;;;;;;;17.60;100.00;99529.53;106022;1253;72264;-79